TJSJ/SJU METAR and TAF weather

Enter ICAO airport designator
Station Type Date Time Source
TJSJ METAR 2019/11/22 00:56 UTC NOAA

TJSJ 220056Z 01006KT 10SM SCT025 SCT060 29/23 A2989 RMK AO2 SLP122 VCSH NW T02890233


Station Type Date Time Source
TJSJ Decoded METAR 2019/11/22 00:56 UTC NOAA

San Juan, Luis Munoz Marin International Airport, PR, United States (TJSJ) 18-27N 066-00W
Nov 21, 2019 - 07:56 PM EST / 2019.11.22 0056 UTC
Wind: from the N (010 degrees) at 7 MPH (6 KT):0
Visibility: 10 mile(s):0
Sky conditions: partly cloudy
Temperature: 84.0 F (28.9 C)
Dew Point: 73.9 F (23.3 C)
Relative Humidity: 71%
Pressure (altimeter): 29.89 in. Hg (1012 hPa)
ob: TJSJ 220056Z 01006KT 10SM SCT025 SCT060 29/23 A2989 RMK AO2 SLP122 VCSH NW T02890233
cycle: 1

Station Type Date Time Source
TJSJ TAF 2019/11/22 01:09 UTC NOAA

TAF TJSJ 220100Z 2201/2224 01008KT P6SM -SHRA SCT030 BKN050
TEMPO 2202/2204 5SM SHRA SCT020 BKN040
FM221300 04014KT P6SM VCSH SCT025 SCT070

Example: see airport list